Time;durP1;ratioP1;P1;durP2;ratioP2;P2;SDS_P1;SDS_P2;PMS_P1;PMS_P2;Temp;Humidity;BMP_temperature;BMP_pressure;BME280_temperature;BME280_humidity;BME280_pressure;Samples;Min_cycle;Max_cycle;Signal;HPM_P1;HPM_P2
2023/12/24 00:01:06;;;;;;;1.20;1.20;;;7.40;54.70;;;;;;5044265;28;20205;-66
2023/12/24 00:03:33;;;;;;;1.83;1.80;;;7.50;55.00;;;;;;5052307;28;20244;-66
2023/12/24 00:05:59;;;;;;;1.50;1.50;;;7.40;54.90;;;;;;5051502;28;20552;-65
2023/12/24 00:08:28;;;;;;;1.50;1.50;;;7.40;55.00;;;;;;5039394;28;20240;-65
2023/12/24 00:10:54;;;;;;;1.40;1.40;;;7.40;55.20;;;;;;5048703;28;20206;-65
2023/12/24 00:13:21;;;;;;;1.30;1.30;;;7.40;55.30;;;;;;5040834;28;20638;-66
2023/12/24 00:15:48;;;;;;;1.30;1.30;;;7.40;54.60;;;;;;5041589;28;20280;-63
2023/12/24 00:18:14;;;;;;;1.50;1.50;;;7.40;54.70;;;;;;5041000;28;20240;-63
2023/12/24 00:20:41;;;;;;;1.40;1.40;;;7.40;54.70;;;;;;5052244;28;20212;-65
2023/12/24 00:23:07;;;;;;;1.47;1.40;;;7.50;54.40;;;;;;5040661;28;20252;-65
2023/12/24 00:25:34;;;;;;;1.87;1.50;;;7.50;53.90;;;;;;5040376;28;20787;-66
2023/12/24 00:28:00;;;;;;;1.33;1.33;;;7.50;53.70;;;;;;5048736;28;20247;-65
2023/12/24 00:30:27;;;;;;;1.47;1.37;;;7.50;53.70;;;;;;5038861;28;20334;-66
2023/12/24 00:32:54;;;;;;;1.40;1.40;;;7.50;54.00;;;;;;5042292;28;20254;-66
2023/12/24 00:35:21;;;;;;;1.50;1.50;;;7.50;53.80;;;;;;5041135;28;20248;-64
2023/12/24 00:37:47;;;;;;;1.40;1.40;;;7.50;53.90;;;;;;5045910;28;20629;-66
2023/12/24 00:40:14;;;;;;;1.57;1.47;;;7.50;53.80;;;;;;5051914;28;20233;-65
2023/12/24 00:42:41;;;;;;;1.23;1.23;;;7.40;53.40;;;;;;5043870;28;20587;-66
2023/12/24 00:45:08;;;;;;;1.40;1.40;;;7.50;53.60;;;;;;5035816;28;20628;-65
2023/12/24 00:47:34;;;;;;;1.50;1.50;;;7.40;54.10;;;;;;5026646;28;20627;-66
2023/12/24 00:50:01;;;;;;;1.40;1.30;;;7.40;53.40;;;;;;5036714;28;20759;-66
2023/12/24 00:52:27;;;;;;;1.40;1.40;;;7.40;53.20;;;;;;5041167;28;20243;-65
2023/12/24 00:54:54;;;;;;;1.40;1.40;;;7.40;53.50;;;;;;5047404;28;20236;-66
2023/12/24 00:57:21;;;;;;;1.40;1.40;;;7.40;53.60;;;;;;5046612;28;20255;-66
2023/12/24 00:59:47;;;;;;;1.50;1.50;;;7.40;53.70;;;;;;5044189;28;20204;-66
2023/12/24 01:02:14;;;;;;;1.37;1.30;;;7.40;53.50;;;;;;5040130;28;20213;-66
2023/12/24 01:04:40;;;;;;;1.50;1.50;;;7.40;53.60;;;;;;5046134;28;20669;-66
2023/12/24 01:07:06;;;;;;;1.30;1.30;;;7.50;53.80;;;;;;5035731;28;20247;-66
2023/12/24 01:09:33;;;;;;;1.40;1.40;;;7.40;53.60;;;;;;5042918;28;20658;-66
2023/12/24 01:11:59;;;;;;;1.33;1.33;;;7.40;53.40;;;;;;5044235;28;20284;-66
2023/12/24 01:14:26;;;;;;;1.60;1.60;;;7.40;53.60;;;;;;5041255;28;20633;-66
2023/12/24 01:16:53;;;;;;;1.40;1.40;;;7.30;53.60;;;;;;5043505;28;20236;-65
2023/12/24 01:19:20;;;;;;;3.17;1.40;;;7.30;53.50;;;;;;5042717;28;20228;-66
2023/12/24 01:21:46;;;;;;;1.27;1.27;;;7.40;53.70;;;;;;5041071;28;20202;-66
2023/12/24 01:24:13;;;;;;;1.50;1.50;;;7.30;53.60;;;;;;5043458;28;20216;-64
2023/12/24 01:26:39;;;;;;;1.13;1.13;;;7.40;53.80;;;;;;5038723;28;20754;-66
2023/12/24 01:29:06;;;;;;;1.50;1.50;;;7.30;53.20;;;;;;5037945;28;20580;-66
2023/12/24 01:31:33;;;;;;;1.37;1.37;;;7.30;53.70;;;;;;5050478;28;20204;-66
2023/12/24 01:33:59;;;;;;;1.30;1.20;;;7.30;53.60;;;;;;5045866;28;20720;-66
2023/12/24 01:36:26;;;;;;;1.30;1.30;;;7.30;53.50;;;;;;5043906;28;20252;-65
2023/12/24 01:38:52;;;;;;;1.30;1.30;;;7.30;53.60;;;;;;5041629;28;20240;-66
2023/12/24 01:41:19;;;;;;;1.40;1.40;;;7.40;53.60;;;;;;5042466;28;20275;-66
2023/12/24 01:43:45;;;;;;;1.77;1.50;;;7.30;53.60;;;;;;5042160;28;20220;-66
2023/12/24 01:46:12;;;;;;;1.60;1.50;;;7.30;53.40;;;;;;5045891;28;23839;-65
2023/12/24 01:48:38;;;;;;;1.60;1.50;;;7.30;53.40;;;;;;5049138;28;20273;-66
2023/12/24 01:51:05;;;;;;;1.53;1.50;;;7.30;53.60;;;;;;5042388;28;20201;-66
2023/12/24 01:53:31;;;;;;;1.50;1.50;;;7.40;53.40;;;;;;5039801;28;20275;-66
2023/12/24 01:55:58;;;;;;;1.50;1.43;;;7.30;53.10;;;;;;5041975;28;20229;-66
2023/12/24 01:58:24;;;;;;;1.30;1.30;;;7.30;53.60;;;;;;5044034;28;20303;-65
2023/12/24 02:00:51;;;;;;;1.40;1.40;;;7.20;53.50;;;;;;5023318;28;20233;-65
2023/12/24 02:03:17;;;;;;;1.30;1.30;;;7.30;53.40;;;;;;5043337;28;20301;-66
2023/12/24 02:05:44;;;;;;;1.50;1.50;;;7.30;53.50;;;;;;5044031;28;20239;-66
2023/12/24 02:08:10;;;;;;;1.60;1.60;;;7.20;53.20;;;;;;5040927;28;20240;-66
2023/12/24 02:10:37;;;;;;;1.20;1.20;;;7.20;53.40;;;;;;5045461;28;20318;-66
2023/12/24 02:13:04;;;;;;;1.30;1.30;;;7.20;53.40;;;;;;5048077;28;20201;-66
2023/12/24 02:15:30;;;;;;;1.40;1.40;;;7.20;53.20;;;;;;5038355;28;20289;-66
2023/12/24 02:17:57;;;;;;;1.40;1.40;;;7.20;53.30;;;;;;5040373;28;20242;-66
2023/12/24 02:20:24;;;;;;;1.40;1.40;;;7.20;53.10;;;;;;5039729;28;20209;-66
2023/12/24 02:22:50;;;;;;;1.30;1.30;;;7.20;53.10;;;;;;5042424;28;20224;-66
2023/12/24 02:25:17;;;;;;;1.40;1.40;;;7.20;53.20;;;;;;5044908;28;20261;-66
2023/12/24 02:27:43;;;;;;;1.70;1.60;;;7.30;53.10;;;;;;5047104;28;20248;-66
2023/12/24 02:30:10;;;;;;;1.50;1.40;;;7.30;53.00;;;;;;5039160;28;20735;-66
2023/12/24 02:32:37;;;;;;;1.40;1.40;;;7.20;52.90;;;;;;5039708;28;20253;-66
2023/12/24 02:35:03;;;;;;;1.37;1.37;;;7.30;53.10;;;;;;5046225;28;20233;-66
2023/12/24 02:37:30;;;;;;;1.23;1.20;;;7.20;53.10;;;;;;5038446;28;20212;-66
2023/12/24 02:39:56;;;;;;;1.40;1.40;;;7.30;53.10;;;;;;5042538;28;20209;-66
2023/12/24 02:42:23;;;;;;;1.40;1.40;;;7.30;53.10;;;;;;5039708;28;20220;-65
2023/12/24 02:44:49;;;;;;;1.43;1.40;;;7.30;53.10;;;;;;5041666;28;20237;-67
2023/12/24 02:47:16;;;;;;;1.83;1.70;;;7.30;53.30;;;;;;5049173;28;20296;-66
2023/12/24 02:49:42;;;;;;;1.60;1.60;;;7.30;53.40;;;;;;5042730;28;20257;-66
2023/12/24 02:52:09;;;;;;;1.50;1.50;;;7.20;53.30;;;;;;5044204;28;20217;-67
2023/12/24 02:54:35;;;;;;;1.73;1.63;;;7.30;53.40;;;;;;5042867;28;20234;-65
2023/12/24 02:57:02;;;;;;;1.40;1.40;;;7.20;53.20;;;;;;5045946;28;20212;-66
2023/12/24 02:59:31;;;;;;;1.47;1.47;;;7.20;53.30;;;;;;5042981;28;20259;-66
2023/12/24 03:01:58;;;;;;;1.40;1.40;;;7.30;53.20;;;;;;5050481;28;20232;-66
2023/12/24 03:04:24;;;;;;;1.50;1.50;;;7.30;53.40;;;;;;5044415;28;20237;-66
2023/12/24 03:06:51;;;;;;;1.50;1.40;;;7.30;53.10;;;;;;5041875;28;20270;-66
2023/12/24 03:09:17;;;;;;;1.50;1.40;;;7.20;53.30;;;;;;5045934;28;20209;-67
2023/12/24 03:11:44;;;;;;;1.57;1.47;;;7.20;53.30;;;;;;5054376;28;20212;-67
2023/12/24 03:14:10;;;;;;;1.70;1.60;;;7.20;53.60;;;;;;5046794;28;20273;-64
2023/12/24 03:16:37;;;;;;;1.53;1.50;;;7.20;53.00;;;;;;5045984;28;20295;-66
2023/12/24 03:19:03;;;;;;;1.30;1.30;;;7.20;53.10;;;;;;5042826;28;20725;-66
2023/12/24 03:21:30;;;;;;;1.80;1.70;;;7.20;52.80;;;;;;5046280;28;20218;-66
2023/12/24 03:23:56;;;;;;;1.27;1.27;;;7.20;53.10;;;;;;5044575;28;20237;-67
2023/12/24 03:26:23;;;;;;;1.40;1.40;;;7.20;53.10;;;;;;5045692;28;20279;-66
2023/12/24 03:28:49;;;;;;;1.40;1.40;;;7.30;52.80;;;;;;5042639;28;20267;-66
2023/12/24 03:31:16;;;;;;;1.43;1.33;;;7.30;52.70;;;;;;5045344;28;20233;-66
2023/12/24 03:33:42;;;;;;;1.40;1.40;;;7.40;52.30;;;;;;5045128;28;20248;-66
2023/12/24 03:36:09;;;;;;;1.60;1.50;;;7.30;52.20;;;;;;5043257;28;20320;-67
2023/12/24 03:38:35;;;;;;;1.40;1.40;;;7.40;52.30;;;;;;5044054;28;20229;-66
2023/12/24 03:41:02;;;;;;;1.60;1.50;;;7.40;52.30;;;;;;5048117;28;20737;-66
2023/12/24 03:43:29;;;;;;;1.57;1.40;;;7.40;52.10;;;;;;5045616;28;20287;-66
2023/12/24 03:45:55;;;;;;;1.57;1.50;;;7.40;52.30;;;;;;5044208;28;20737;-66
2023/12/24 03:48:22;;;;;;;1.63;1.60;;;7.40;52.30;;;;;;5052553;28;20240;-66
2023/12/24 03:50:48;;;;;;;1.40;1.40;;;7.40;51.90;;;;;;5052199;28;20222;-65
2023/12/24 03:53:15;;;;;;;1.30;1.30;;;7.40;52.20;;;;;;5018301;28;20288;-66
2023/12/24 03:55:41;;;;;;;1.40;1.40;;;7.40;52.20;;;;;;5044342;28;20228;-66
2023/12/24 03:58:08;;;;;;;1.40;1.40;;;7.40;51.80;;;;;;5041392;28;20206;-66
2023/12/24 04:00:34;;;;;;;1.30;1.30;;;7.40;52.00;;;;;;5044153;28;20303;-67
2023/12/24 04:03:01;;;;;;;1.50;1.40;;;7.40;51.90;;;;;;5044975;28;20283;-65
2023/12/24 04:05:27;;;;;;;1.43;1.33;;;7.40;51.80;;;;;;5026759;28;20712;-66
2023/12/24 04:07:54;;;;;;;1.50;1.50;;;7.40;51.30;;;;;;5043344;28;20208;-66
2023/12/24 04:10:20;;;;;;;1.47;1.47;;;7.50;51.40;;;;;;5040412;28;20251;-66
2023/12/24 04:12:47;;;;;;;1.47;1.43;;;7.40;51.70;;;;;;5047571;28;20260;-66
2023/12/24 04:15:13;;;;;;;1.40;1.30;;;7.50;51.30;;;;;;5043048;28;20797;-65
2023/12/24 04:17:40;;;;;;;1.30;1.30;;;7.40;51.30;;;;;;5040958;28;20244;-67
2023/12/24 04:20:06;;;;;;;1.60;1.50;;;7.50;51.30;;;;;;5044348;28;20220;-66
2023/12/24 04:22:33;;;;;;;1.20;1.20;;;7.40;51.30;;;;;;5045768;28;20244;-66
2023/12/24 04:24:59;;;;;;;1.50;1.50;;;7.40;51.30;;;;;;5047920;28;20287;-66
2023/12/24 04:27:26;;;;;;;1.60;1.60;;;7.40;51.20;;;;;;5038197;28;20253;-64
2023/12/24 04:29:52;;;;;;;1.20;1.20;;;7.40;51.60;;;;;;5049158;28;20307;-66
2023/12/24 04:32:20;;;;;;;1.70;1.60;;;7.50;51.50;;;;;;5043805;28;20233;-66
2023/12/24 04:34:46;;;;;;;1.20;1.20;;;7.50;51.40;;;;;;5041741;28;20213;-66
2023/12/24 04:37:13;;;;;;;1.30;1.30;;;7.40;51.90;;;;;;5049864;28;20230;-66
2023/12/24 04:39:39;;;;;;;1.70;1.60;;;7.50;51.70;;;;;;5043311;28;20275;-66
2023/12/24 04:42:06;;;;;;;2.27;1.70;;;7.40;51.70;;;;;;5034005;28;20244;-65
2023/12/24 04:44:32;;;;;;;1.20;1.20;;;7.50;51.90;;;;;;5043844;28;20221;-67
2023/12/24 04:46:59;;;;;;;1.40;1.40;;;7.40;51.80;;;;;;5044911;28;20290;-65
2023/12/24 04:49:26;;;;;;;1.23;1.23;;;7.30;51.90;;;;;;5043914;28;20213;-66
2023/12/24 04:51:52;;;;;;;1.67;1.60;;;7.30;51.80;;;;;;5043910;28;20284;-66
2023/12/24 04:54:19;;;;;;;1.40;1.40;;;7.30;52.20;;;;;;5051727;28;20302;-66
2023/12/24 04:56:45;;;;;;;1.43;1.43;;;7.30;52.20;;;;;;5051629;28;20264;-66
2023/12/24 04:59:12;;;;;;;1.47;1.43;;;7.30;51.80;;;;;;5042276;28;20216;-66
2023/12/24 05:01:39;;;;;;;1.40;1.40;;;7.40;51.90;;;;;;5043561;28;20652;-66
2023/12/24 05:04:06;;;;;;;1.43;1.40;;;7.40;52.30;;;;;;5036001;28;20738;-66
2023/12/24 05:06:33;;;;;;;1.50;1.50;;;7.30;52.20;;;;;;5041839;28;20229;-66
2023/12/24 05:08:59;;;;;;;1.43;1.43;;;7.40;52.30;;;;;;5041504;28;20684;-66
2023/12/24 05:11:26;;;;;;;1.60;1.50;;;7.40;51.80;;;;;;5039530;28;20256;-68
2023/12/24 05:13:52;;;;;;;1.50;1.40;;;7.40;52.10;;;;;;5041637;28;20778;-66
2023/12/24 05:16:19;;;;;;;1.30;1.30;;;7.40;52.30;;;;;;5046082;28;20257;-66
2023/12/24 05:18:45;;;;;;;1.23;1.23;;;7.30;52.20;;;;;;5040865;28;20263;-65
2023/12/24 05:21:12;;;;;;;1.50;1.50;;;7.40;52.20;;;;;;5040163;28;20236;-66
2023/12/24 05:23:38;;;;;;;1.50;1.40;;;7.40;52.30;;;;;;5041267;28;20209;-65
2023/12/24 05:26:05;;;;;;;1.37;1.37;;;7.40;52.30;;;;;;5048206;28;20224;-65
2023/12/24 05:28:31;;;;;;;1.40;1.40;;;7.30;52.50;;;;;;5043712;28;20308;-67
2023/12/24 05:30:58;;;;;;;1.30;1.30;;;7.40;52.30;;;;;;5041136;28;20259;-67
2023/12/24 05:33:25;;;;;;;1.87;1.67;;;7.40;51.80;;;;;;5026562;28;20691;-66
2023/12/24 05:35:51;;;;;;;1.50;1.50;;;7.40;52.00;;;;;;5042929;28;20260;-67
2023/12/24 05:38:19;;;;;;;1.30;1.30;;;7.40;52.10;;;;;;5043266;28;20277;-65
2023/12/24 05:40:47;;;;;;;1.60;1.50;;;7.50;52.10;;;;;;5040125;28;20682;-66
2023/12/24 05:43:13;;;;;;;1.70;1.60;;;7.40;52.10;;;;;;5048369;28;20233;-66
2023/12/24 05:45:40;;;;;;;1.37;1.37;;;7.40;52.10;;;;;;5045562;28;20241;-66
2023/12/24 05:48:06;;;;;;;1.90;1.80;;;7.40;52.30;;;;;;5039846;28;20671;-65
2023/12/24 05:50:33;;;;;;;1.47;1.43;;;7.40;52.30;;;;;;5050669;28;20253;-65
2023/12/24 05:52:59;;;;;;;1.60;1.60;;;7.40;52.30;;;;;;5040658;28;20259;-65
2023/12/24 05:55:25;;;;;;;1.50;1.50;;;7.40;52.30;;;;;;5041001;28;20256;-66
2023/12/24 05:57:51;;;;;;;1.30;1.30;;;7.40;52.30;;;;;;5042129;28;20208;-65
2023/12/24 06:00:18;;;;;;;1.40;1.40;;;7.40;52.30;;;;;;5025366;28;20296;-66
2023/12/24 06:02:45;;;;;;;1.30;1.30;;;7.40;52.30;;;;;;5049397;28;20270;-67
2023/12/24 06:05:12;;;;;;;1.30;1.30;;;7.40;52.30;;;;;;5049225;28;20717;-67
2023/12/24 06:07:38;;;;;;;1.60;1.60;;;7.40;52.30;;;;;;5040585;28;20258;-66
2023/12/24 06:10:05;;;;;;;1.67;1.57;;;7.40;52.30;;;;;;5039623;28;20240;-66
2023/12/24 06:12:31;;;;;;;1.40;1.40;;;7.40;52.70;;;;;;5043632;28;20745;-66
2023/12/24 06:14:58;;;;;;;1.60;1.60;;;7.40;53.10;;;;;;5039702;28;20712;-66
2023/12/24 06:17:24;;;;;;;1.33;1.33;;;7.40;52.80;;;;;;5040608;28;20213;-66
2023/12/24 06:19:51;;;;;;;1.40;1.40;;;7.40;53.00;;;;;;5042306;28;20235;-66
2023/12/24 06:22:17;;;;;;;1.40;1.40;;;7.40;53.00;;;;;;5042871;28;20707;-66
2023/12/24 06:24:44;;;;;;;1.33;1.30;;;7.40;53.00;;;;;;5051054;28;20208;-66
2023/12/24 06:27:11;;;;;;;1.50;1.40;;;7.50;53.00;;;;;;5048076;28;20210;-65
2023/12/24 06:29:37;;;;;;;1.20;1.20;;;7.50;53.10;;;;;;5046614;28;20213;-66
2023/12/24 06:32:04;;;;;;;1.30;1.30;;;7.40;52.90;;;;;;5046089;28;20256;-66
2023/12/24 06:34:31;;;;;;;1.50;1.40;;;7.40;53.10;;;;;;5054053;28;20212;-66
2023/12/24 06:36:57;;;;;;;1.30;1.30;;;7.40;53.10;;;;;;5045580;28;20205;-66
2023/12/24 06:39:24;;;;;;;1.33;1.27;;;7.40;53.10;;;;;;5046475;28;20209;-66
2023/12/24 06:41:50;;;;;;;1.33;1.33;;;7.50;52.80;;;;;;5046903;28;20238;-66
2023/12/24 06:44:17;;;;;;;1.40;1.40;;;7.40;52.50;;;;;;5042458;28;20735;-66
2023/12/24 06:46:43;;;;;;;1.50;1.50;;;7.40;53.00;;;;;;5044572;28;20267;-65
2023/12/24 06:49:10;;;;;;;1.40;1.40;;;7.40;52.60;;;;;;5049253;28;20210;-66
2023/12/24 06:51:36;;;;;;;1.40;1.40;;;7.50;52.40;;;;;;5043099;28;20225;-66
2023/12/24 06:54:03;;;;;;;1.40;1.40;;;7.40;52.70;;;;;;5051304;28;20248;-66
2023/12/24 06:56:29;;;;;;;1.23;1.23;;;7.40;53.40;;;;;;5044872;28;20296;-67
2023/12/24 06:58:56;;;;;;;1.67;1.57;;;7.50;52.80;;;;;;5043969;28;20625;-65
2023/12/24 07:01:22;;;;;;;1.40;1.40;;;7.50;52.70;;;;;;5030466;28;20312;-66
2023/12/24 07:03:49;;;;;;;1.50;1.40;;;7.30;53.00;;;;;;5038805;28;20217;-66
2023/12/24 07:06:15;;;;;;;1.40;1.40;;;7.40;52.80;;;;;;5046778;28;20647;-66
2023/12/24 07:08:42;;;;;;;1.37;1.33;;;7.30;52.80;;;;;;5049939;28;20288;-66
2023/12/24 07:11:09;;;;;;;1.30;1.30;;;7.30;52.90;;;;;;5051215;28;20228;-66
2023/12/24 07:13:35;;;;;;;1.50;1.50;;;7.40;52.70;;;;;;5046833;28;20221;-66
2023/12/24 07:16:02;;;;;;;1.30;1.30;;;7.40;53.00;;;;;;5045379;28;20790;-66
2023/12/24 07:18:29;;;;;;;1.57;1.50;;;7.40;52.80;;;;;;5045185;28;20292;-66
2023/12/24 07:20:55;;;;;;;1.40;1.40;;;7.40;52.80;;;;;;5043893;28;20245;-66
2023/12/24 07:23:22;;;;;;;1.40;1.40;;;7.40;52.80;;;;;;5041838;28;20220;-67
2023/12/24 07:25:48;;;;;;;1.60;1.50;;;7.50;53.00;;;;;;5044552;28;20260;-66
2023/12/24 07:28:15;;;;;;;1.47;1.47;;;7.50;52.40;;;;;;5051378;28;20707;-66
2023/12/24 07:30:42;;;;;;;1.40;1.40;;;7.60;52.50;;;;;;5043249;28;20574;-66
2023/12/24 07:33:08;;;;;;;1.30;1.30;;;7.60;52.50;;;;;;5051932;28;20690;-65
2023/12/24 07:35:35;;;;;;;1.67;1.57;;;7.60;52.50;;;;;;5042772;28;20257;-66
2023/12/24 07:38:01;;;;;;;1.77;1.67;;;7.60;52.50;;;;;;5050714;28;20668;-66
2023/12/24 07:40:28;;;;;;;1.50;1.40;;;7.60;52.50;;;;;;5043455;28;20217;-66
2023/12/24 07:42:57;;;;;;;1.80;1.70;;;7.60;52.50;;;;;;5048987;28;20209;-66
2023/12/24 07:45:24;;;;;;;1.40;1.40;;;7.60;52.40;;;;;;5041523;28;20299;-66
2023/12/24 07:47:50;;;;;;;1.30;1.30;;;7.70;52.20;;;;;;5044256;28;20209;-66
2023/12/24 07:50:17;;;;;;;1.63;1.53;;;7.80;52.60;;;;;;5044588;28;20228;-66
2023/12/24 07:52:43;;;;;;;1.60;1.50;;;7.70;52.20;;;;;;5027327;28;20212;-66
2023/12/24 07:55:10;;;;;;;1.57;1.47;;;7.80;52.30;;;;;;5039361;28;20252;-66
2023/12/24 07:57:36;;;;;;;1.70;1.60;;;7.80;52.40;;;;;;5044502;28;20231;-65
2023/12/24 08:00:03;;;;;;;1.23;1.23;;;7.80;52.00;;;;;;5039914;28;20244;-66
2023/12/24 08:02:29;;;;;;;1.67;1.57;;;7.90;52.30;;;;;;5047827;28;20217;-66
2023/12/24 08:04:56;;;;;;;1.40;1.40;;;7.80;52.20;;;;;;5043909;28;20247;-65
2023/12/24 08:07:23;;;;;;;1.37;1.37;;;7.90;51.80;;;;;;5053194;28;20245;-68
2023/12/24 08:09:50;;;;;;;1.40;1.40;;;7.90;51.90;;;;;;5036239;28;20292;-67
2023/12/24 08:12:16;;;;;;;1.40;1.40;;;8.00;51.50;;;;;;5044842;28;20264;-67
2023/12/24 08:14:43;;;;;;;1.40;1.40;;;8.00;51.40;;;;;;5042723;28;20617;-67
2023/12/24 08:17:10;;;;;;;1.50;1.50;;;8.00;51.70;;;;;;5040356;28;20234;-67
2023/12/24 08:19:37;;;;;;;1.80;1.70;;;8.00;51.40;;;;;;5039080;28;20240;-67
2023/12/24 08:22:03;;;;;;;1.30;1.30;;;8.00;51.20;;;;;;5039824;28;20209;-67
2023/12/24 08:24:30;;;;;;;1.20;1.20;;;8.00;51.00;;;;;;5048488;28;20245;-65
2023/12/24 08:26:56;;;;;;;1.20;1.20;;;8.00;51.40;;;;;;5051570;28;20213;-67
2023/12/24 08:29:23;;;;;;;1.53;1.53;;;8.00;51.20;;;;;;5045834;28;20268;-67
2023/12/24 08:31:51;;;;;;;1.33;1.33;;;8.00;50.70;;;;;;5045974;28;20282;-67
2023/12/24 08:34:17;;;;;;;1.20;1.20;;;8.10;51.00;;;;;;5038594;28;20221;-67
2023/12/24 08:36:44;;;;;;;1.97;1.37;;;8.10;51.40;;;;;;5048181;28;20230;-67
2023/12/24 08:39:10;;;;;;;1.50;1.50;;;8.00;52.80;;;;;;5040250;28;20202;-67
2023/12/24 08:41:37;;;;;;;1.30;1.30;;;7.90;54.50;;;;;;5034533;28;20210;-66
2023/12/24 08:44:04;;;;;;;1.47;1.40;;;7.80;54.50;;;;;;5049287;28;20267;-67
2023/12/24 08:46:30;;;;;;;2.87;2.23;;;7.80;55.30;;;;;;5044478;28;20680;-67
2023/12/24 08:48:57;;;;;;;1.60;1.50;;;7.80;56.80;;;;;;5046288;28;20220;-67
2023/12/24 08:51:24;;;;;;;1.40;1.40;;;7.80;56.00;;;;;;5042154;28;20222;-67
2023/12/24 08:53:51;;;;;;;1.47;1.40;;;7.70;56.70;;;;;;5046868;28;20252;-67
2023/12/24 08:56:17;;;;;;;1.60;1.50;;;7.70;56.90;;;;;;5043255;28;20222;-66
2023/12/24 08:58:44;;;;;;;1.30;1.30;;;7.80;57.10;;;;;;5026788;28;20213;-68
2023/12/24 09:01:13;;;;;;;1.60;1.50;;;7.70;57.90;;;;;;5040741;28;20236;-68
2023/12/24 09:03:40;;;;;;;2.00;1.90;;;7.80;57.60;;;;;;5041100;28;20268;-67
2023/12/24 09:06:06;;;;;;;1.40;1.40;;;7.90;59.40;;;;;;5040067;28;20275;-68
2023/12/24 09:08:33;;;;;;;1.70;1.60;;;8.10;57.30;;;;;;5049017;28;20236;-69
2023/12/24 09:10:59;;;;;;;1.67;1.57;;;8.00;56.90;;;;;;5047501;28;20687;-68
2023/12/24 09:13:26;;;;;;;1.57;1.47;;;8.00;55.60;;;;;;5052416;28;20217;-68
2023/12/24 09:15:53;;;;;;;1.57;1.47;;;8.00;55.90;;;;;;5045672;28;20252;-67
2023/12/24 09:18:19;;;;;;;1.40;1.33;;;8.00;55.40;;;;;;5033484;28;20205;-68
2023/12/24 09:20:46;;;;;;;1.37;1.37;;;8.00;55.30;;;;;;5032699;28;20229;-69
2023/12/24 09:23:12;;;;;;;1.13;1.13;;;7.90;56.10;;;;;;5049205;28;20229;-67
2023/12/24 09:25:39;;;;;;;1.37;1.27;;;8.00;56.90;;;;;;5041613;28;20294;-67
2023/12/24 09:28:06;;;;;;;1.43;1.43;;;8.00;57.20;;;;;;5041184;28;20290;-67
2023/12/24 09:30:32;;;;;;;1.30;1.30;;;7.90;58.20;;;;;;5042453;28;20581;-68
2023/12/24 09:32:59;;;;;;;1.47;1.40;;;7.90;59.00;;;;;;5044734;28;20233;-68
2023/12/24 09:35:27;;;;;;;1.63;1.53;;;7.90;58.60;;;;;;5040858;28;20279;-67
2023/12/24 09:37:53;;;;;;;1.87;1.77;;;8.00;59.20;;;;;;5039598;28;20580;-66
2023/12/24 09:40:20;;;;;;;1.80;1.70;;;7.90;59.10;;;;;;5041809;28;20210;-68
2023/12/24 09:42:47;;;;;;;1.70;1.60;;;7.90;59.80;;;;;;5041181;28;20205;-68
2023/12/24 09:45:13;;;;;;;2.10;1.50;;;7.90;60.00;;;;;;5042976;28;20233;-66
2023/12/24 09:47:40;;;;;;;1.50;1.37;;;7.80;61.00;;;;;;5044241;28;20254;-67
2023/12/24 09:50:07;;;;;;;1.43;1.43;;;7.80;61.00;;;;;;5043720;28;20206;-66
2023/12/24 09:52:33;;;;;;;1.83;1.73;;;7.80;60.90;;;;;;5043228;28;22498;-66
2023/12/24 09:55:00;;;;;;;1.30;1.30;;;7.80;61.90;;;;;;5048747;28;20378;-68
2023/12/24 09:57:27;;;;;;;2.17;2.07;;;7.70;62.70;;;;;;5037373;28;20205;-66
2023/12/24 09:59:54;;;;;;;1.60;1.50;;;7.80;62.60;;;;;;5050043;28;20212;-67
2023/12/24 10:02:20;;;;;;;1.70;1.60;;;7.80;61.80;;;;;;5050796;28;20672;-65
2023/12/24 10:04:47;;;;;;;1.40;1.37;;;7.80;62.60;;;;;;5050687;28;20772;-65
2023/12/24 10:07:14;;;;;;;1.60;1.50;;;7.80;63.20;;;;;;5050393;28;20675;-67
2023/12/24 10:09:40;;;;;;;1.70;1.60;;;7.90;63.10;;;;;;5046721;28;20212;-66
2023/12/24 10:12:08;;;;;;;1.30;1.30;;;7.90;61.50;;;;;;5045354;28;20329;-66
2023/12/24 10:14:35;;;;;;;1.30;1.30;;;8.00;60.30;;;;;;5041573;28;20217;-66
2023/12/24 10:17:03;;;;;;;1.60;1.50;;;8.10;60.60;;;;;;5037366;28;20213;-70
2023/12/24 10:19:29;;;;;;;1.67;1.50;;;8.50;61.40;;;;;;5030739;28;20209;-76
2023/12/24 10:21:55;;;;;;;1.50;1.40;;;8.40;58.40;;;;;;5030574;28;20573;-76
2023/12/24 10:24:21;;;;;;;1.70;1.60;;;8.40;58.20;;;;;;5049595;28;20202;-75
2023/12/24 10:26:48;;;;;;;1.67;1.57;;;8.40;58.90;;;;;;5043690;28;20222;-75
2023/12/24 10:29:14;;;;;;;1.57;1.47;;;8.40;59.00;;;;;;5047113;28;20680;-76
2023/12/24 10:31:41;;;;;;;1.93;1.60;;;8.40;57.50;;;;;;5045671;28;20226;-74
2023/12/24 10:34:08;;;;;;;3.03;1.57;;;8.50;57.60;;;;;;5040695;28;20213;-70
2023/12/24 10:36:34;;;;;;;2.00;1.90;;;8.60;58.00;;;;;;5044965;28;20470;-73
2023/12/24 10:39:01;;;;;;;1.60;1.50;;;8.60;56.50;;;;;;5043821;28;20225;-72
2023/12/24 10:41:27;;;;;;;1.50;1.50;;;8.70;55.80;;;;;;5047874;28;20217;-71
2023/12/24 10:43:54;;;;;;;1.60;1.50;;;8.70;54.70;;;;;;5034657;28;20292;-71
2023/12/24 10:46:20;;;;;;;1.60;1.50;;;8.80;54.80;;;;;;5040738;28;20250;-69
2023/12/24 10:48:47;;;;;;;1.63;1.60;;;8.80;53.80;;;;;;5043787;28;20210;-71
2023/12/24 10:51:13;;;;;;;1.90;1.30;;;8.90;54.00;;;;;;5041695;28;20206;-73
2023/12/24 10:53:41;;;;;;;1.83;1.40;;;9.10;52.80;;;;;;5027572;28;20577;-72
2023/12/24 10:56:08;;;;;;;1.10;1.10;;;9.10;53.10;;;;;;5039214;28;20228;-71
2023/12/24 10:58:34;;;;;;;1.70;1.40;;;9.20;52.50;;;;;;5029090;28;20225;-71
2023/12/24 11:01:01;;;;;;;4.17;1.93;;;9.30;52.10;;;;;;5044752;28;20229;-71
2023/12/24 11:03:28;;;;;;;1.30;1.30;;;10.20;55.90;;;;;;5050709;28;20221;-70
2023/12/24 11:05:54;;;;;;;1.53;1.43;;;9.70;52.80;;;;;;5043806;28;20295;-71
2023/12/24 11:08:20;;;;;;;1.17;1.17;;;9.50;52.60;;;;;;5032448;28;20611;-73
2023/12/24 11:10:46;;;;;;;2.40;1.00;;;9.40;54.00;;;;;;5044523;28;20201;-73
2023/12/24 11:13:13;;;;;;;1.37;1.37;;;9.30;54.90;;;;;;5045085;28;20222;-73
2023/12/24 11:15:38;;;;;;;1.30;1.30;;;9.30;55.80;;;;;;5047160;28;20721;-71
2023/12/24 11:18:05;;;;;;;1.20;1.20;;;9.20;57.30;;;;;;5046761;28;20212;-73
2023/12/24 11:20:30;;;;;;;1.60;1.50;;;9.20;58.20;;;;;;5046512;28;20228;-73
2023/12/24 11:22:57;;;;;;;2.27;1.40;;;9.10;60.60;;;;;;5037075;28;20196;-74
2023/12/24 11:25:23;;;;;;;1.50;1.40;;;9.00;61.70;;;;;;5054545;28;20231;-75
2023/12/24 11:27:50;;;;;;;1.47;1.37;;;9.10;61.30;;;;;;5027269;28;20299;-74
2023/12/24 11:30:17;;;;;;;1.30;1.20;;;9.00;61.80;;;;;;5038561;28;20282;-72
2023/12/24 11:32:43;;;;;;;1.63;1.53;;;8.80;63.40;;;;;;5032422;28;20214;-74
2023/12/24 11:35:10;;;;;;;1.60;1.60;;;8.80;64.00;;;;;;5047097;28;20272;-73
2023/12/24 11:37:39;;;;;;;2.57;1.37;;;8.80;65.60;;;;;;5031573;28;20706;-73
2023/12/24 11:40:05;;;;;;;1.30;1.30;;;8.70;66.90;;;;;;5027214;28;20203;-74
2023/12/24 11:42:32;;;;;;;1.47;1.43;;;8.70;68.80;;;;;;5007373;28;20278;-72
2023/12/24 11:44:58;;;;;;;1.47;1.37;;;8.60;69.70;;;;;;5039286;28;20265;-74
2023/12/24 11:47:25;;;;;;;2.93;1.60;;;8.70;69.40;;;;;;5044956;28;20693;-71
2023/12/24 11:49:52;;;;;;;1.60;1.50;;;8.60;68.50;;;;;;5043307;28;20625;-74
2023/12/24 11:52:18;;;;;;;1.73;1.20;;;8.60;69.10;;;;;;5044989;28;20706;-75
2023/12/24 11:54:45;;;;;;;1.63;1.53;;;8.60;68.90;;;;;;5043553;28;20300;-74
2023/12/24 11:57:11;;;;;;;1.67;1.47;;;8.60;69.40;;;;;;5044761;28;20252;-74
2023/12/24 11:59:38;;;;;;;1.30;1.30;;;8.60;70.50;;;;;;5048790;28;20206;-74
2023/12/24 12:02:05;;;;;;;1.40;1.40;;;8.60;70.80;;;;;;5041275;28;20206;-74
2023/12/24 12:04:31;;;;;;;1.93;1.70;;;8.60;71.40;;;;;;5048253;28;20226;-77
2023/12/24 12:06:58;;;;;;;1.57;1.40;;;8.60;70.50;;;;;;5045135;28;20197;-74
2023/12/24 12:09:24;;;;;;;1.57;1.47;;;8.60;70.60;;;;;;5052263;28;20261;-75
2023/12/24 12:11:51;;;;;;;1.30;1.30;;;8.60;71.40;;;;;;5050056;28;20283;-70
2023/12/24 12:14:18;;;;;;;1.57;1.47;;;8.50;71.40;;;;;;5049040;28;20239;-70
2023/12/24 12:16:44;;;;;;;1.50;1.50;;;8.50;72.70;;;;;;5044143;28;20233;-69
2023/12/24 12:19:11;;;;;;;1.67;1.57;;;8.50;72.90;;;;;;5046691;28;20201;-72
2023/12/24 12:21:38;;;;;;;1.73;1.63;;;8.50;73.40;;;;;;5045713;28;20277;-72
2023/12/24 12:24:04;;;;;;;1.60;1.50;;;8.60;73.20;;;;;;5047608;28;20235;-73
2023/12/24 12:26:31;;;;;;;1.63;1.53;;;8.60;72.30;;;;;;5044484;28;20655;-72
2023/12/24 12:28:58;;;;;;;1.40;1.40;;;8.60;72.60;;;;;;5047843;28;20628;-72
2023/12/24 12:31:24;;;;;;;1.73;1.63;;;8.70;72.30;;;;;;5041914;28;20603;-73
2023/12/24 12:33:51;;;;;;;1.53;1.30;;;8.70;73.50;;;;;;5049175;28;20225;-72
2023/12/24 12:36:18;;;;;;;2.10;1.73;;;8.70;72.90;;;;;;5047961;28;20221;-71
2023/12/24 12:38:44;;;;;;;1.70;1.60;;;8.70;73.00;;;;;;5031320;28;20499;-70
2023/12/24 12:41:11;;;;;;;1.60;1.50;;;8.80;73.80;;;;;;5045060;28;20235;-71
2023/12/24 12:43:37;;;;;;;2.37;1.60;;;8.80;72.40;;;;;;5044692;28;20253;-72
2023/12/24 12:46:04;;;;;;;1.50;1.50;;;8.90;71.20;;;;;;5040911;28;20247;-70
2023/12/24 12:48:30;;;;;;;1.50;1.40;;;9.00;71.00;;;;;;5046069;28;20207;-72
2023/12/24 12:50:57;;;;;;;1.50;1.50;;;9.00;69.80;;;;;;5049369;28;20278;-70
2023/12/24 12:53:24;;;;;;;1.50;1.40;;;9.10;69.40;;;;;;5044279;28;20227;-70